sensor_id;sensor_type;location;lat;lon;timestamp;P1;durP1;ratioP1;P2;durP2;ratioP2
6374;SDS011;35400;45.472;-122.822;2023-02-02T00:01:00;6.43;;;4.00;;
6374;SDS011;35400;45.472;-122.822;2023-02-02T00:03:26;5.97;;;3.70;;
6374;SDS011;35400;45.472;-122.822;2023-02-02T00:05:54;4.10;;;3.57;;
6374;SDS011;35400;45.472;-122.822;2023-02-02T00:08:22;5.87;;;4.27;;
6374;SDS011;35400;45.472;-122.822;2023-02-02T00:10:49;4.60;;;4.20;;
6374;SDS011;35400;45.472;-122.822;2023-02-02T00:13:15;5.47;;;3.57;;
6374;SDS011;35400;45.472;-122.822;2023-02-02T00:15:42;6.00;;;3.77;;
6374;SDS011;35400;45.472;-122.822;2023-02-02T00:18:10;3.97;;;3.57;;
6374;SDS011;35400;45.472;-122.822;2023-02-02T00:20:37;5.43;;;3.87;;
6374;SDS011;35400;45.472;-122.822;2023-02-02T00:23:07;4.57;;;3.40;;
6374;SDS011;35400;45.472;-122.822;2023-02-02T00:25:34;5.07;;;3.87;;
6374;SDS011;35400;45.472;-122.822;2023-02-02T00:28:00;5.37;;;3.70;;
6374;SDS011;35400;45.472;-122.822;2023-02-02T00:30:27;4.70;;;3.90;;
6374;SDS011;35400;45.472;-122.822;2023-02-02T00:32:54;4.93;;;3.73;;
6374;SDS011;35400;45.472;-122.822;2023-02-02T00:35:22;5.33;;;3.87;;
6374;SDS011;35400;45.472;-122.822;2023-02-02T00:37:49;7.50;;;4.13;;
6374;SDS011;35400;45.472;-122.822;2023-02-02T00:40:16;5.43;;;4.17;;
6374;SDS011;35400;45.472;-122.822;2023-02-02T00:42:43;6.30;;;4.97;;
6374;SDS011;35400;45.472;-122.822;2023-02-02T00:45:13;6.90;;;5.20;;
6374;SDS011;35400;45.472;-122.822;2023-02-02T00:47:41;6.40;;;4.83;;
6374;SDS011;35400;45.472;-122.822;2023-02-02T00:50:11;8.47;;;5.90;;
6374;SDS011;35400;45.472;-122.822;2023-02-02T00:52:40;11.80;;;7.97;;
6374;SDS011;35400;45.472;-122.822;2023-02-02T00:55:07;13.60;;;8.33;;
6374;SDS011;35400;45.472;-122.822;2023-02-02T00:57:36;12.80;;;8.83;;
6374;SDS011;35400;45.472;-122.822;2023-02-02T01:00:03;14.27;;;10.23;;
6374;SDS011;35400;45.472;-122.822;2023-02-02T01:02:32;14.77;;;8.77;;
6374;SDS011;35400;45.472;-122.822;2023-02-02T01:05:00;12.33;;;8.80;;
6374;SDS011;35400;45.472;-122.822;2023-02-02T01:07:28;14.43;;;8.77;;
6374;SDS011;35400;45.472;-122.822;2023-02-02T01:09:55;12.87;;;9.17;;
6374;SDS011;35400;45.472;-122.822;2023-02-02T01:12:22;12.70;;;9.63;;
6374;SDS011;35400;45.472;-122.822;2023-02-02T01:14:50;12.97;;;9.17;;
6374;SDS011;35400;45.472;-122.822;2023-02-02T01:17:16;14.90;;;8.87;;
6374;SDS011;35400;45.472;-122.822;2023-02-02T01:19:44;13.37;;;8.27;;
6374;SDS011;35400;45.472;-122.822;2023-02-02T01:22:11;11.53;;;8.63;;
6374;SDS011;35400;45.472;-122.822;2023-02-02T01:24:37;12.53;;;8.50;;
6374;SDS011;35400;45.472;-122.822;2023-02-02T01:27:04;12.07;;;8.43;;
6374;SDS011;35400;45.472;-122.822;2023-02-02T01:29:31;15.73;;;8.67;;
6374;SDS011;35400;45.472;-122.822;2023-02-02T01:31:58;13.20;;;7.87;;
6374;SDS011;35400;45.472;-122.822;2023-02-02T01:34:25;17.67;;;8.70;;
6374;SDS011;35400;45.472;-122.822;2023-02-02T01:36:51;14.73;;;7.83;;
6374;SDS011;35400;45.472;-122.822;2023-02-02T01:39:18;9.63;;;7.20;;
6374;SDS011;35400;45.472;-122.822;2023-02-02T01:41:45;11.00;;;6.77;;
6374;SDS011;35400;45.472;-122.822;2023-02-02T01:47:21;14.80;;;8.83;;
6374;SDS011;35400;45.472;-122.822;2023-02-02T01:49:52;12.30;;;8.50;;
6374;SDS011;35400;45.472;-122.822;2023-02-02T01:52:21;15.10;;;9.43;;
6374;SDS011;35400;45.472;-122.822;2023-02-02T01:54:52;17.60;;;9.40;;
6374;SDS011;35400;45.472;-122.822;2023-02-02T01:59:55;19.17;;;10.70;;
6374;SDS011;35400;45.472;-122.822;2023-02-02T02:02:24;17.30;;;10.73;;
6374;SDS011;35400;45.472;-122.822;2023-02-02T02:04:52;17.00;;;9.43;;
6374;SDS011;35400;45.472;-122.822;2023-02-02T02:07:21;17.97;;;9.37;;
6374;SDS011;35400;45.472;-122.822;2023-02-02T02:09:49;16.33;;;9.27;;
6374;SDS011;35400;45.472;-122.822;2023-02-02T02:12:16;13.57;;;8.80;;
6374;SDS011;35400;45.472;-122.822;2023-02-02T02:14:44;14.23;;;9.50;;
6374;SDS011;35400;45.472;-122.822;2023-02-02T02:29:38;19.03;;;9.80;;
6374;SDS011;35400;45.472;-122.822;2023-02-02T02:32:17;16.53;;;9.90;;
6374;SDS011;35400;45.472;-122.822;2023-02-02T02:38:03;16.20;;;10.37;;
6374;SDS011;35400;45.472;-122.822;2023-02-02T02:43:30;18.07;;;11.70;;
6374;SDS011;35400;45.472;-122.822;2023-02-02T02:45:57;22.17;;;12.03;;
6374;SDS011;35400;45.472;-122.822;2023-02-02T02:48:24;21.43;;;12.97;;
6374;SDS011;35400;45.472;-122.822;2023-02-02T02:50:51;20.97;;;12.63;;
6374;SDS011;35400;45.472;-122.822;2023-02-02T02:53:19;18.43;;;11.23;;
6374;SDS011;35400;45.472;-122.822;2023-02-02T02:55:48;19.57;;;11.37;;
6374;SDS011;35400;45.472;-122.822;2023-02-02T02:58:34;16.00;;;11.40;;
6374;SDS011;35400;45.472;-122.822;2023-02-02T03:01:13;16.70;;;11.20;;
6374;SDS011;35400;45.472;-122.822;2023-02-02T03:04:05;16.77;;;9.90;;
6374;SDS011;35400;45.472;-122.822;2023-02-02T03:06:41;17.97;;;10.43;;
6374;SDS011;35400;45.472;-122.822;2023-02-02T03:09:24;15.40;;;10.60;;
6374;SDS011;35400;45.472;-122.822;2023-02-02T03:11:57;18.13;;;12.07;;
6374;SDS011;35400;45.472;-122.822;2023-02-02T03:14:24;15.53;;;11.37;;
6374;SDS011;35400;45.472;-122.822;2023-02-02T03:16:52;15.03;;;11.37;;
6374;SDS011;35400;45.472;-122.822;2023-02-02T03:19:19;16.30;;;12.50;;
6374;SDS011;35400;45.472;-122.822;2023-02-02T03:21:46;21.40;;;13.97;;
6374;SDS011;35400;45.472;-122.822;2023-02-02T03:24:12;21.77;;;14.17;;
6374;SDS011;35400;45.472;-122.822;2023-02-02T03:26:39;21.83;;;13.27;;
6374;SDS011;35400;45.472;-122.822;2023-02-02T03:29:06;18.27;;;13.00;;
6374;SDS011;35400;45.472;-122.822;2023-02-02T03:31:33;21.10;;;13.27;;
6374;SDS011;35400;45.472;-122.822;2023-02-02T03:34:00;26.10;;;15.17;;
6374;SDS011;35400;45.472;-122.822;2023-02-02T03:36:27;23.63;;;16.03;;
6374;SDS011;35400;45.472;-122.822;2023-02-02T03:38:54;21.73;;;14.80;;
6374;SDS011;35400;45.472;-122.822;2023-02-02T03:41:21;23.33;;;14.93;;
6374;SDS011;35400;45.472;-122.822;2023-02-02T03:43:48;22.00;;;14.10;;
6374;SDS011;35400;45.472;-122.822;2023-02-02T03:46:15;24.73;;;14.93;;
6374;SDS011;35400;45.472;-122.822;2023-02-02T03:48:41;22.67;;;15.37;;
6374;SDS011;35400;45.472;-122.822;2023-02-02T03:51:09;28.53;;;17.53;;
6374;SDS011;35400;45.472;-122.822;2023-02-02T03:53:41;23.33;;;16.63;;
6374;SDS011;35400;45.472;-122.822;2023-02-02T03:56:14;24.37;;;16.60;;
6374;SDS011;35400;45.472;-122.822;2023-02-02T03:58:41;23.13;;;15.43;;
6374;SDS011;35400;45.472;-122.822;2023-02-02T04:01:12;26.60;;;15.27;;
6374;SDS011;35400;45.472;-122.822;2023-02-02T04:03:39;24.60;;;15.20;;
6374;SDS011;35400;45.472;-122.822;2023-02-02T04:06:06;20.90;;;14.30;;
6374;SDS011;35400;45.472;-122.822;2023-02-02T04:08:33;21.83;;;13.63;;
6374;SDS011;35400;45.472;-122.822;2023-02-02T04:11:00;17.83;;;13.80;;
6374;SDS011;35400;45.472;-122.822;2023-02-02T04:13:27;22.17;;;15.03;;
6374;SDS011;35400;45.472;-122.822;2023-02-02T04:15:56;24.47;;;15.57;;
6374;SDS011;35400;45.472;-122.822;2023-02-02T04:18:26;20.90;;;14.20;;
6374;SDS011;35400;45.472;-122.822;2023-02-02T04:21:00;24.97;;;15.20;;
6374;SDS011;35400;45.472;-122.822;2023-02-02T04:23:27;23.63;;;15.63;;
6374;SDS011;35400;45.472;-122.822;2023-02-02T04:25:54;24.00;;;15.27;;
6374;SDS011;35400;45.472;-122.822;2023-02-02T04:28:22;21.77;;;15.40;;
6374;SDS011;35400;45.472;-122.822;2023-02-02T04:30:50;22.60;;;14.87;;
6374;SDS011;35400;45.472;-122.822;2023-02-02T04:33:18;24.67;;;15.37;;
6374;SDS011;35400;45.472;-122.822;2023-02-02T04:35:45;24.30;;;14.90;;
6374;SDS011;35400;45.472;-122.822;2023-02-02T04:38:12;26.17;;;16.43;;
6374;SDS011;35400;45.472;-122.822;2023-02-02T04:40:40;22.77;;;14.50;;
6374;SDS011;35400;45.472;-122.822;2023-02-02T04:43:08;23.53;;;15.67;;
6374;SDS011;35400;45.472;-122.822;2023-02-02T04:45:36;24.63;;;16.83;;
6374;SDS011;35400;45.472;-122.822;2023-02-02T04:48:03;25.43;;;14.87;;
6374;SDS011;35400;45.472;-122.822;2023-02-02T04:50:30;22.70;;;16.67;;
6374;SDS011;35400;45.472;-122.822;2023-02-02T04:52:57;25.97;;;16.13;;
6374;SDS011;35400;45.472;-122.822;2023-02-02T04:55:24;27.87;;;16.23;;
6374;SDS011;35400;45.472;-122.822;2023-02-02T04:57:51;24.23;;;17.33;;
6374;SDS011;35400;45.472;-122.822;2023-02-02T05:00:18;26.37;;;16.97;;
6374;SDS011;35400;45.472;-122.822;2023-02-02T05:02:45;27.50;;;18.00;;
6374;SDS011;35400;45.472;-122.822;2023-02-02T05:05:13;36.33;;;19.60;;
6374;SDS011;35400;45.472;-122.822;2023-02-02T05:07:40;28.73;;;18.30;;
6374;SDS011;35400;45.472;-122.822;2023-02-02T05:10:08;27.33;;;17.73;;
6374;SDS011;35400;45.472;-122.822;2023-02-02T05:12:36;29.27;;;18.37;;
6374;SDS011;35400;45.472;-122.822;2023-02-02T05:15:03;30.07;;;19.47;;
6374;SDS011;35400;45.472;-122.822;2023-02-02T05:17:30;38.00;;;20.90;;
6374;SDS011;35400;45.472;-122.822;2023-02-02T05:19:57;33.53;;;19.90;;
6374;SDS011;35400;45.472;-122.822;2023-02-02T05:22:24;30.97;;;18.90;;
6374;SDS011;35400;45.472;-122.822;2023-02-02T05:24:51;27.70;;;17.93;;
6374;SDS011;35400;45.472;-122.822;2023-02-02T05:27:18;31.47;;;19.23;;
6374;SDS011;35400;45.472;-122.822;2023-02-02T05:29:45;31.63;;;22.90;;
6374;SDS011;35400;45.472;-122.822;2023-02-02T05:32:13;36.80;;;25.17;;
6374;SDS011;35400;45.472;-122.822;2023-02-02T05:34:39;35.63;;;24.67;;
6374;SDS011;35400;45.472;-122.822;2023-02-02T05:37:06;33.40;;;23.53;;
6374;SDS011;35400;45.472;-122.822;2023-02-02T05:39:33;33.07;;;20.50;;
6374;SDS011;35400;45.472;-122.822;2023-02-02T05:42:00;30.63;;;20.00;;
6374;SDS011;35400;45.472;-122.822;2023-02-02T05:44:27;26.67;;;16.07;;
6374;SDS011;35400;45.472;-122.822;2023-02-02T05:46:54;23.70;;;15.40;;
6374;SDS011;35400;45.472;-122.822;2023-02-02T05:49:20;24.03;;;15.40;;
6374;SDS011;35400;45.472;-122.822;2023-02-02T05:51:49;24.03;;;15.60;;
6374;SDS011;35400;45.472;-122.822;2023-02-02T05:54:18;21.17;;;14.37;;
6374;SDS011;35400;45.472;-122.822;2023-02-02T05:56:46;24.93;;;16.40;;
6374;SDS011;35400;45.472;-122.822;2023-02-02T05:59:14;29.67;;;17.90;;
6374;SDS011;35400;45.472;-122.822;2023-02-02T06:01:42;32.23;;;20.07;;
6374;SDS011;35400;45.472;-122.822;2023-02-02T06:04:09;32.30;;;20.57;;
6374;SDS011;35400;45.472;-122.822;2023-02-02T06:06:36;26.63;;;19.30;;
6374;SDS011;35400;45.472;-122.822;2023-02-02T06:09:06;27.40;;;18.83;;
6374;SDS011;35400;45.472;-122.822;2023-02-02T06:11:33;26.37;;;17.63;;
6374;SDS011;35400;45.472;-122.822;2023-02-02T06:14:01;26.87;;;18.30;;
6374;SDS011;35400;45.472;-122.822;2023-02-02T06:16:27;29.77;;;19.10;;
6374;SDS011;35400;45.472;-122.822;2023-02-02T06:18:55;26.77;;;18.27;;
6374;SDS011;35400;45.472;-122.822;2023-02-02T06:21:22;29.63;;;17.53;;
6374;SDS011;35400;45.472;-122.822;2023-02-02T06:23:49;28.00;;;17.20;;
6374;SDS011;35400;45.472;-122.822;2023-02-02T06:26:17;29.83;;;17.33;;
6374;SDS011;35400;45.472;-122.822;2023-02-02T06:28:47;26.17;;;17.30;;
6374;SDS011;35400;45.472;-122.822;2023-02-02T06:31:16;25.47;;;17.60;;
6374;SDS011;35400;45.472;-122.822;2023-02-02T06:33:53;25.47;;;17.53;;
6374;SDS011;35400;45.472;-122.822;2023-02-02T06:36:22;39.73;;;20.07;;
6374;SDS011;35400;45.472;-122.822;2023-02-02T06:38:50;36.67;;;21.37;;
6374;SDS011;35400;45.472;-122.822;2023-02-02T06:41:19;31.00;;;20.50;;
6374;SDS011;35400;45.472;-122.822;2023-02-02T06:43:46;34.97;;;20.60;;
6374;SDS011;35400;45.472;-122.822;2023-02-02T06:46:14;35.57;;;20.83;;
6374;SDS011;35400;45.472;-122.822;2023-02-02T06:48:41;38.13;;;21.87;;
6374;SDS011;35400;45.472;-122.822;2023-02-02T06:51:08;45.27;;;24.73;;
6374;SDS011;35400;45.472;-122.822;2023-02-02T06:53:35;38.17;;;22.10;;
6374;SDS011;35400;45.472;-122.822;2023-02-02T06:56:03;41.97;;;23.47;;
6374;SDS011;35400;45.472;-122.822;2023-02-02T06:58:32;38.43;;;23.30;;
6374;SDS011;35400;45.472;-122.822;2023-02-02T07:01:03;51.97;;;27.30;;
6374;SDS011;35400;45.472;-122.822;2023-02-02T07:03:32;42.73;;;23.73;;
6374;SDS011;35400;45.472;-122.822;2023-02-02T07:06:09;44.47;;;24.33;;
6374;SDS011;35400;45.472;-122.822;2023-02-02T07:08:50;50.23;;;25.43;;
6374;SDS011;35400;45.472;-122.822;2023-02-02T07:11:17;45.03;;;24.07;;
6374;SDS011;35400;45.472;-122.822;2023-02-02T07:13:44;42.53;;;21.93;;
6374;SDS011;35400;45.472;-122.822;2023-02-02T07:16:12;37.67;;;20.83;;
6374;SDS011;35400;45.472;-122.822;2023-02-02T07:18:40;42.17;;;21.70;;
6374;SDS011;35400;45.472;-122.822;2023-02-02T07:21:22;41.20;;;21.70;;
6374;SDS011;35400;45.472;-122.822;2023-02-02T07:23:51;36.07;;;21.10;;
6374;SDS011;35400;45.472;-122.822;2023-02-02T07:26:18;42.83;;;21.13;;
6374;SDS011;35400;45.472;-122.822;2023-02-02T07:28:45;40.97;;;20.37;;
6374;SDS011;35400;45.472;-122.822;2023-02-02T07:33:50;33.97;;;20.00;;
6374;SDS011;35400;45.472;-122.822;2023-02-02T07:36:19;35.67;;;20.03;;
6374;SDS011;35400;45.472;-122.822;2023-02-02T07:38:49;33.03;;;19.77;;
6374;SDS011;35400;45.472;-122.822;2023-02-02T07:41:19;37.93;;;21.30;;
6374;SDS011;35400;45.472;-122.822;2023-02-02T07:43:46;40.13;;;22.60;;
6374;SDS011;35400;45.472;-122.822;2023-02-02T07:46:14;45.50;;;21.83;;
6374;SDS011;35400;45.472;-122.822;2023-02-02T07:48:42;43.50;;;24.13;;
6374;SDS011;35400;45.472;-122.822;2023-02-02T07:51:11;42.77;;;23.10;;
6374;SDS011;35400;45.472;-122.822;2023-02-02T07:53:43;41.10;;;22.60;;
6374;SDS011;35400;45.472;-122.822;2023-02-02T07:56:13;35.93;;;21.97;;
6374;SDS011;35400;45.472;-122.822;2023-02-02T07:58:45;37.47;;;20.97;;
6374;SDS011;35400;45.472;-122.822;2023-02-02T08:01:12;37.63;;;20.00;;
6374;SDS011;35400;45.472;-122.822;2023-02-02T08:03:41;35.80;;;21.03;;
6374;SDS011;35400;45.472;-122.822;2023-02-02T08:06:09;34.20;;;19.80;;
6374;SDS011;35400;45.472;-122.822;2023-02-02T08:08:38;37.23;;;20.83;;
6374;SDS011;35400;45.472;-122.822;2023-02-02T08:11:07;31.27;;;18.97;;
6374;SDS011;35400;45.472;-122.822;2023-02-02T08:13:35;32.67;;;19.70;;
6374;SDS011;35400;45.472;-122.822;2023-02-02T08:16:02;33.83;;;19.47;;
6374;SDS011;35400;45.472;-122.822;2023-02-02T08:18:30;33.23;;;19.03;;
6374;SDS011;35400;45.472;-122.822;2023-02-02T08:20:59;32.43;;;18.73;;
6374;SDS011;35400;45.472;-122.822;2023-02-02T08:23:26;34.43;;;18.30;;
6374;SDS011;35400;45.472;-122.822;2023-02-02T08:25:54;33.40;;;19.40;;
6374;SDS011;35400;45.472;-122.822;2023-02-02T08:28:30;30.50;;;18.33;;
6374;SDS011;35400;45.472;-122.822;2023-02-02T08:31:02;36.03;;;19.67;;
6374;SDS011;35400;45.472;-122.822;2023-02-02T08:33:49;31.77;;;17.80;;
6374;SDS011;35400;45.472;-122.822;2023-02-02T08:36:19;29.60;;;17.00;;
6374;SDS011;35400;45.472;-122.822;2023-02-02T08:38:48;35.10;;;19.30;;
6374;SDS011;35400;45.472;-122.822;2023-02-02T08:41:16;31.00;;;18.03;;
6374;SDS011;35400;45.472;-122.822;2023-02-02T08:43:44;31.83;;;18.50;;
6374;SDS011;35400;45.472;-122.822;2023-02-02T08:46:12;30.03;;;17.73;;
6374;SDS011;35400;45.472;-122.822;2023-02-02T08:48:40;30.17;;;17.87;;
6374;SDS011;35400;45.472;-122.822;2023-02-02T08:51:09;28.07;;;17.63;;
6374;SDS011;35400;45.472;-122.822;2023-02-02T08:53:43;32.27;;;17.80;;
6374;SDS011;35400;45.472;-122.822;2023-02-02T08:56:11;35.93;;;18.73;;
6374;SDS011;35400;45.472;-122.822;2023-02-02T08:58:42;27.63;;;17.87;;
6374;SDS011;35400;45.472;-122.822;2023-02-02T09:01:21;29.20;;;16.43;;
6374;SDS011;35400;45.472;-122.822;2023-02-02T09:03:56;30.53;;;17.90;;
6374;SDS011;35400;45.472;-122.822;2023-02-02T09:06:38;27.90;;;17.17;;
6374;SDS011;35400;45.472;-122.822;2023-02-02T09:09:07;29.27;;;17.27;;
6374;SDS011;35400;45.472;-122.822;2023-02-02T09:11:35;29.50;;;18.03;;
6374;SDS011;35400;45.472;-122.822;2023-02-02T09:14:03;29.03;;;17.53;;
6374;SDS011;35400;45.472;-122.822;2023-02-02T09:16:31;28.67;;;18.67;;
6374;SDS011;35400;45.472;-122.822;2023-02-02T09:18:59;32.27;;;17.97;;
6374;SDS011;35400;45.472;-122.822;2023-02-02T09:21:26;30.37;;;18.93;;
6374;SDS011;35400;45.472;-122.822;2023-02-02T09:23:53;29.40;;;18.40;;
6374;SDS011;35400;45.472;-122.822;2023-02-02T09:26:22;29.63;;;18.00;;
6374;SDS011;35400;45.472;-122.822;2023-02-02T09:28:57;35.47;;;20.50;;
6374;SDS011;35400;45.472;-122.822;2023-02-02T09:31:29;33.60;;;20.13;;
6374;SDS011;35400;45.472;-122.822;2023-02-02T09:34:06;33.77;;;18.50;;
6374;SDS011;35400;45.472;-122.822;2023-02-02T09:36:34;36.67;;;19.03;;
6374;SDS011;35400;45.472;-122.822;2023-02-02T09:39:03;29.27;;;18.70;;
6374;SDS011;35400;45.472;-122.822;2023-02-02T09:44:19;29.90;;;18.37;;
6374;SDS011;35400;45.472;-122.822;2023-02-02T09:49:55;34.23;;;19.50;;
6374;SDS011;35400;45.472;-122.822;2023-02-02T09:52:34;34.73;;;19.33;;
6374;SDS011;35400;45.472;-122.822;2023-02-02T10:01:15;27.43;;;17.60;;
6374;SDS011;35400;45.472;-122.822;2023-02-02T10:03:34;29.43;;;18.40;;
6374;SDS011;35400;45.472;-122.822;2023-02-02T10:06:10;29.33;;;18.13;;
6374;SDS011;35400;45.472;-122.822;2023-02-02T10:08:47;28.03;;;17.63;;
6374;SDS011;35400;45.472;-122.822;2023-02-02T10:12:25;28.33;;;17.30;;
6374;SDS011;35400;45.472;-122.822;2023-02-02T10:14:41;29.03;;;17.40;;
6374;SDS011;35400;45.472;-122.822;2023-02-02T10:22:55;36.20;;;20.57;;
6374;SDS011;35400;45.472;-122.822;2023-02-02T10:25:28;34.30;;;18.77;;
6374;SDS011;35400;45.472;-122.822;2023-02-02T10:28:03;29.53;;;18.57;;
6374;SDS011;35400;45.472;-122.822;2023-02-02T10:30:38;30.00;;;17.93;;
6374;SDS011;35400;45.472;-122.822;2023-02-02T10:33:14;31.97;;;17.57;;
6374;SDS011;35400;45.472;-122.822;2023-02-02T10:35:53;25.23;;;17.53;;
6374;SDS011;35400;45.472;-122.822;2023-02-02T10:38:36;29.53;;;18.33;;
6374;SDS011;35400;45.472;-122.822;2023-02-02T10:51:54;27.10;;;17.90;;
6374;SDS011;35400;45.472;-122.822;2023-02-02T11:00:18;32.33;;;17.00;;
6374;SDS011;35400;45.472;-122.822;2023-02-02T11:02:46;32.03;;;17.03;;
6374;SDS011;35400;45.472;-122.822;2023-02-02T11:05:19;28.87;;;16.93;;
6374;SDS011;35400;45.472;-122.822;2023-02-02T11:08:40;24.50;;;15.63;;
6374;SDS011;35400;45.472;-122.822;2023-02-02T11:11:10;26.50;;;16.53;;
6374;SDS011;35400;45.472;-122.822;2023-02-02T11:13:48;31.33;;;17.37;;
6374;SDS011;35400;45.472;-122.822;2023-02-02T11:16:24;27.57;;;18.60;;
6374;SDS011;35400;45.472;-122.822;2023-02-02T11:18:53;29.93;;;17.90;;
6374;SDS011;35400;45.472;-122.822;2023-02-02T11:23:55;28.80;;;17.77;;
6374;SDS011;35400;45.472;-122.822;2023-02-02T11:29:28;30.33;;;18.40;;
6374;SDS011;35400;45.472;-122.822;2023-02-02T11:31:56;28.50;;;17.83;;
6374;SDS011;35400;45.472;-122.822;2023-02-02T11:34:24;26.63;;;16.57;;
6374;SDS011;35400;45.472;-122.822;2023-02-02T11:37:00;28.90;;;17.17;;
6374;SDS011;35400;45.472;-122.822;2023-02-02T11:39:36;25.13;;;16.80;;
6374;SDS011;35400;45.472;-122.822;2023-02-02T11:45:00;26.20;;;17.13;;
6374;SDS011;35400;45.472;-122.822;2023-02-02T11:47:29;27.20;;;16.77;;
6374;SDS011;35400;45.472;-122.822;2023-02-02T11:49:59;25.07;;;18.00;;
6374;SDS011;35400;45.472;-122.822;2023-02-02T11:52:29;29.00;;;17.37;;
6374;SDS011;35400;45.472;-122.822;2023-02-02T11:54:58;30.63;;;19.17;;
6374;SDS011;35400;45.472;-122.822;2023-02-02T11:57:33;28.47;;;18.43;;
6374;SDS011;35400;45.472;-122.822;2023-02-02T12:02:45;29.07;;;17.07;;
6374;SDS011;35400;45.472;-122.822;2023-02-02T12:07:46;27.87;;;17.10;;
6374;SDS011;35400;45.472;-122.822;2023-02-02T12:10:17;26.13;;;16.50;;
6374;SDS011;35400;45.472;-122.822;2023-02-02T12:12:59;25.43;;;16.87;;
6374;SDS011;35400;45.472;-122.822;2023-02-02T12:15:58;29.13;;;16.80;;
6374;SDS011;35400;45.472;-122.822;2023-02-02T12:24:11;30.63;;;18.27;;
6374;SDS011;35400;45.472;-122.822;2023-02-02T12:27:20;22.07;;;16.17;;
6374;SDS011;35400;45.472;-122.822;2023-02-02T12:36:18;29.63;;;17.33;;
6374;SDS011;35400;45.472;-122.822;2023-02-02T12:44:23;25.07;;;17.53;;
6374;SDS011;35400;45.472;-122.822;2023-02-02T12:55:49;28.73;;;17.80;;
6374;SDS011;35400;45.472;-122.822;2023-02-02T13:01:09;26.33;;;16.43;;
6374;SDS011;35400;45.472;-122.822;2023-02-02T13:09:38;28.40;;;17.83;;
6374;SDS011;35400;45.472;-122.822;2023-02-02T13:12:13;28.63;;;17.37;;
6374;SDS011;35400;45.472;-122.822;2023-02-02T13:14:45;24.53;;;17.20;;
6374;SDS011;35400;45.472;-122.822;2023-02-02T13:17:19;25.33;;;17.57;;
6374;SDS011;35400;45.472;-122.822;2023-02-02T13:20:37;27.43;;;18.60;;
6374;SDS011;35400;45.472;-122.822;2023-02-02T13:23:12;27.80;;;16.57;;
6374;SDS011;35400;45.472;-122.822;2023-02-02T13:25:49;24.17;;;16.40;;
6374;SDS011;35400;45.472;-122.822;2023-02-02T13:28:26;27.70;;;16.60;;
6374;SDS011;35400;45.472;-122.822;2023-02-02T13:30:58;26.27;;;17.30;;
6374;SDS011;35400;45.472;-122.822;2023-02-02T13:33:31;25.00;;;15.43;;
6374;SDS011;35400;45.472;-122.822;2023-02-02T13:36:04;23.20;;;16.00;;
6374;SDS011;35400;45.472;-122.822;2023-02-02T13:38:34;21.67;;;15.83;;
6374;SDS011;35400;45.472;-122.822;2023-02-02T13:41:07;25.90;;;16.40;;
6374;SDS011;35400;45.472;-122.822;2023-02-02T13:43:46;24.33;;;16.70;;
6374;SDS011;35400;45.472;-122.822;2023-02-02T13:46:32;19.53;;;14.87;;
6374;SDS011;35400;45.472;-122.822;2023-02-02T13:49:27;22.47;;;15.20;;
6374;SDS011;35400;45.472;-122.822;2023-02-02T13:58:04;26.13;;;15.43;;
6374;SDS011;35400;45.472;-122.822;2023-02-02T14:00:47;30.40;;;16.47;;
6374;SDS011;35400;45.472;-122.822;2023-02-02T14:06:23;25.07;;;16.07;;
6374;SDS011;35400;45.472;-122.822;2023-02-02T14:09:00;23.17;;;16.97;;
6374;SDS011;35400;45.472;-122.822;2023-02-02T14:11:30;22.07;;;15.67;;
6374;SDS011;35400;45.472;-122.822;2023-02-02T14:16:50;25.90;;;16.07;;
6374;SDS011;35400;45.472;-122.822;2023-02-02T14:19:46;28.40;;;17.10;;
6374;SDS011;35400;45.472;-122.822;2023-02-02T14:34:38;25.33;;;17.20;;
6374;SDS011;35400;45.472;-122.822;2023-02-02T14:37:26;22.20;;;16.23;;
6374;SDS011;35400;45.472;-122.822;2023-02-02T14:40:23;23.90;;;15.90;;
6374;SDS011;35400;45.472;-122.822;2023-02-02T14:49:23;23.57;;;15.17;;
6374;SDS011;35400;45.472;-122.822;2023-02-02T14:51:26;22.73;;;13.87;;
6374;SDS011;35400;45.472;-122.822;2023-02-02T14:53:57;25.07;;;14.10;;
6374;SDS011;35400;45.472;-122.822;2023-02-02T14:59:04;24.03;;;14.90;;
6374;SDS011;35400;45.472;-122.822;2023-02-02T15:01:40;22.30;;;14.67;;
6374;SDS011;35400;45.472;-122.822;2023-02-02T15:06:49;21.33;;;14.60;;
6374;SDS011;35400;45.472;-122.822;2023-02-02T15:20:05;22.83;;;14.47;;
6374;SDS011;35400;45.472;-122.822;2023-02-02T15:22:55;17.93;;;13.40;;
6374;SDS011;35400;45.472;-122.822;2023-02-02T15:28:12;20.47;;;14.93;;
6374;SDS011;35400;45.472;-122.822;2023-02-02T15:30:43;19.93;;;14.23;;
6374;SDS011;35400;45.472;-122.822;2023-02-02T15:33:23;24.67;;;15.03;;
6374;SDS011;35400;45.472;-122.822;2023-02-02T15:35:55;19.27;;;14.07;;
6374;SDS011;35400;45.472;-122.822;2023-02-02T15:38:29;20.60;;;14.50;;
6374;SDS011;35400;45.472;-122.822;2023-02-02T15:41:22;22.27;;;15.50;;
6374;SDS011;35400;45.472;-122.822;2023-02-02T15:43:52;24.70;;;14.77;;
6374;SDS011;35400;45.472;-122.822;2023-02-02T15:46:39;20.77;;;14.63;;
6374;SDS011;35400;45.472;-122.822;2023-02-02T15:51:49;22.90;;;14.63;;
6374;SDS011;35400;45.472;-122.822;2023-02-02T15:54:28;24.40;;;14.53;;
6374;SDS011;35400;45.472;-122.822;2023-02-02T15:56:59;23.97;;;15.50;;
6374;SDS011;35400;45.472;-122.822;2023-02-02T15:59:28;20.10;;;14.40;;
6374;SDS011;35400;45.472;-122.822;2023-02-02T16:04:52;24.53;;;14.93;;
6374;SDS011;35400;45.472;-122.822;2023-02-02T16:07:21;21.30;;;15.13;;
6374;SDS011;35400;45.472;-122.822;2023-02-02T16:10:02;22.37;;;15.33;;
6374;SDS011;35400;45.472;-122.822;2023-02-02T16:12:30;21.77;;;14.33;;
6374;SDS011;35400;45.472;-122.822;2023-02-02T16:14:57;22.27;;;14.63;;
6374;SDS011;35400;45.472;-122.822;2023-02-02T16:17:28;25.93;;;15.30;;
6374;SDS011;35400;45.472;-122.822;2023-02-02T16:20:17;23.00;;;14.50;;
6374;SDS011;35400;45.472;-122.822;2023-02-02T16:22:44;21.00;;;14.57;;
6374;SDS011;35400;45.472;-122.822;2023-02-02T16:25:18;24.73;;;17.23;;
6374;SDS011;35400;45.472;-122.822;2023-02-02T16:27:47;21.10;;;15.70;;
6374;SDS011;35400;45.472;-122.822;2023-02-02T16:30:26;21.47;;;14.53;;
6374;SDS011;35400;45.472;-122.822;2023-02-02T16:32:53;20.70;;;14.87;;
6374;SDS011;35400;45.472;-122.822;2023-02-02T16:35:34;19.20;;;13.93;;
6374;SDS011;35400;45.472;-122.822;2023-02-02T16:38:22;23.50;;;16.27;;
6374;SDS011;35400;45.472;-122.822;2023-02-02T16:41:05;24.10;;;15.10;;
6374;SDS011;35400;45.472;-122.822;2023-02-02T16:43:32;23.57;;;16.03;;
6374;SDS011;35400;45.472;-122.822;2023-02-02T16:46:01;23.97;;;16.17;;
6374;SDS011;35400;45.472;-122.822;2023-02-02T16:48:36;30.47;;;17.30;;
6374;SDS011;35400;45.472;-122.822;2023-02-02T16:53:43;29.03;;;17.20;;
6374;SDS011;35400;45.472;-122.822;2023-02-02T17:02:19;25.63;;;16.67;;
6374;SDS011;35400;45.472;-122.822;2023-02-02T17:04:46;27.57;;;16.47;;
6374;SDS011;35400;45.472;-122.822;2023-02-02T17:07:18;27.77;;;16.57;;
6374;SDS011;35400;45.472;-122.822;2023-02-02T17:09:47;24.83;;;16.90;;
6374;SDS011;35400;45.472;-122.822;2023-02-02T17:14:57;26.73;;;17.17;;
6374;SDS011;35400;45.472;-122.822;2023-02-02T17:17:29;30.97;;;17.70;;